Time;durP1;ratioP1;P1;durP2;ratioP2;P2;SDS_P1;SDS_P2;PMS_P1;PMS_P2;Temp;Humidity;BMP_temperature;BMP_pressure;BME280_temperature;BME280_humidity;BME280_pressure;Samples;Min_cycle;Max_cycle;Signal;HPM_P1;HPM_P2
2022/12/06 00:01:24;;;;;;;11.53;8.73;;;;;;;1.34;100.00;96376.53;5031794;28;21039;-75
2022/12/06 00:03:54;;;;;;;10.27;9.20;;;;;;;1.08;100.00;96330.78;5032292;28;20930;-76
2022/12/06 00:06:22;;;;;;;7.80;6.90;;;;;;;1.11;100.00;96335.44;5013854;28;20468;-76
2022/12/06 00:08:50;;;;;;;9.93;8.93;;;;;;;1.08;100.00;96328.19;5031571;28;20426;-75
2022/12/06 00:11:19;;;;;;;10.07;8.10;;;;;;;1.31;100.00;96358.81;5023146;28;21004;-75
2022/12/06 00:13:47;;;;;;;11.83;9.60;;;;;;;1.22;100.00;96347.41;5050935;28;20429;-75
2022/12/06 00:16:15;;;;;;;11.97;10.27;;;;;;;1.21;100.00;96352.88;5049832;28;20429;-76
2022/12/06 00:18:44;;;;;;;9.27;7.87;;;;;;;1.17;100.00;96350.78;5052431;28;20443;-75
2022/12/06 00:21:22;;;;;;;12.43;9.47;;;;;;;0.97;100.00;96316.22;5050635;28;20576;-76
2022/12/06 00:23:55;;;;;;;10.50;8.90;;;;;;;1.09;100.00;96327.91;5048592;28;20983;-75
2022/12/06 00:26:22;;;;;;;9.40;7.63;;;;;;;0.84;100.00;96279.31;5013897;28;20439;-75
2022/12/06 00:28:52;;;;;;;7.90;7.00;;;;;;;1.07;100.00;96308.38;5029521;28;20491;-75
2022/12/06 00:31:21;;;;;;;11.23;8.77;;;;;;;1.28;100.00;96312.47;5030029;28;20450;-75
2022/12/06 00:33:47;;;;;;;8.70;7.40;;;;;;;1.34;100.00;96305.44;5033165;28;20433;-74
2022/12/06 00:36:22;;;;;;;9.37;8.30;;;;;;;0.93;100.00;96239.72;5038768;28;20466;-75
2022/12/06 00:38:50;;;;;;;10.10;7.90;;;;;;;1.51;100.00;96311.06;5030060;28;20430;-75
2022/12/06 00:41:19;;;;;;;9.43;8.43;;;;;;;1.44;100.00;96294.94;5015156;28;20475;-74
2022/12/06 00:43:47;;;;;;;13.10;8.50;;;;;;;1.66;100.00;96324.03;5033343;28;20942;-74
2022/12/06 00:46:17;;;;;;;10.30;9.20;;;;;;;1.50;100.00;96306.91;5032925;28;20462;-75
2022/12/06 00:48:45;;;;;;;10.17;9.10;;;;;;;1.62;100.00;96330.81;5029478;28;21040;-75
2022/12/06 00:51:12;;;;;;;10.80;9.30;;;;;;;1.63;100.00;96332.38;5029289;28;20462;-73
2022/12/06 00:53:39;;;;;;;11.97;9.03;;;;;;;1.42;100.00;96291.84;5030331;28;20441;-75
2022/12/06 00:56:06;;;;;;;10.20;8.83;;;;;;;1.62;100.00;96328.22;5033958;28;20430;-75
2022/12/06 00:58:33;;;;;;;10.27;8.00;;;;;;;1.61;100.00;96328.50;5033211;28;20445;-75
2022/12/06 01:01:14;;;;;;;11.93;9.00;;;;;;;1.59;100.00;96333.94;5049419;28;20822;-75
2022/12/06 01:03:42;;;;;;;11.33;9.50;;;;;;;1.61;100.00;96341.53;5049220;28;20429;-75
2022/12/06 01:06:12;;;;;;;9.03;8.10;;;;;;;1.61;100.00;96344.13;5050754;28;20937;-75
2022/12/06 01:08:39;;;;;;;10.17;9.17;;;;;;;1.57;100.00;96338.66;5037298;28;20438;-75
2022/12/06 01:11:07;;;;;;;10.50;9.40;;;;;;;1.52;100.00;96332.69;5033094;28;20521;-76
2022/12/06 01:13:34;;;;;;;11.37;8.93;;;;;;;1.52;100.00;96330.09;5017567;28;21005;-75
2022/12/06 01:16:10;;;;;;;9.70;8.70;;;;;;;1.35;100.00;96307.00;5036964;28;20487;-75
2022/12/06 01:18:37;;;;;;;10.73;9.17;;;;;;;1.36;100.00;96313.75;5034949;28;20434;-75
2022/12/06 01:21:07;;;;;;;12.67;8.90;;;;;;;1.51;100.00;96342.34;5028921;28;20493;-75
2022/12/06 01:23:33;;;;;;;13.83;9.90;;;;;;;1.35;100.00;96333.03;5029221;28;20438;-75
2022/12/06 01:26:00;;;;;;;11.63;9.37;;;;;;;1.38;100.00;96309.06;5029156;28;20469;-75
2022/12/06 01:28:27;;;;;;;9.13;8.10;;;;;;;1.46;100.00;96332.69;5032755;28;20885;-75
2022/12/06 01:30:54;;;;;;;11.93;8.07;;;;;;;1.25;100.00;96304.41;5032563;28;20457;-75
2022/12/06 01:33:21;;;;;;;10.77;8.10;;;;;;;1.21;100.00;96311.22;5046640;28;20441;-75
2022/12/06 01:35:48;;;;;;;13.00;9.70;;;;;;;1.07;100.00;96305.78;5029170;28;20426;-74
2022/12/06 01:38:14;;;;;;;10.27;8.63;;;;;;;0.99;100.00;96285.50;5030275;28;20813;-76
2022/12/06 01:40:44;;;;;;;8.20;7.37;;;;;;;1.08;100.00;96323.75;5012405;28;20481;-75
2022/12/06 01:43:31;;;;;;;9.80;7.70;;;;;;;1.28;100.00;96314.28;5029559;28;20858;-76
2022/12/06 01:46:22;;;;;;;9.70;7.27;;;;;;;1.03;100.00;96271.69;5034676;28;20452;-76
2022/12/06 01:48:56;;;;;;;10.23;7.33;;;;;;;1.14;100.00;96282.84;5026003;28;20860;-75
2022/12/06 01:51:23;;;;;;;7.17;6.30;;;;;;;1.44;100.00;96318.38;5028901;28;20457;-76
2022/12/06 01:53:52;;;;;;;9.57;8.60;;;;;;;0.78;100.00;96228.31;5029030;28;20442;-75
2022/12/06 01:56:19;;;;;;;9.43;7.70;;;;;;;1.37;100.00;96316.09;5013660;28;20441;-75
2022/12/06 01:58:49;;;;;;;8.80;7.20;;;;;;;1.13;100.00;96295.09;5033732;28;20422;-75
2022/12/06 02:01:16;;;;;;;7.97;7.27;;;;;;;1.18;100.00;96286.47;5032044;28;20481;-75
2022/12/06 02:03:44;;;;;;;7.87;7.07;;;;;;;1.21;100.00;96300.81;5015942;28;20624;-75
2022/12/06 02:06:11;;;;;;;9.47;7.20;;;;;;;1.10;100.00;96282.63;5038579;28;20461;-76
2022/12/06 02:08:38;;;;;;;8.33;7.30;;;;;;;1.37;100.00;96312.72;5040153;28;20515;-75
2022/12/06 02:11:05;;;;;;;7.20;6.47;;;;;;;1.37;100.00;96304.91;5018819;28;20992;-75
2022/12/06 02:13:34;;;;;;;7.40;6.70;;;;;;;1.33;100.00;96312.44;5031950;28;20972;-73
2022/12/06 02:16:07;;;;;;;7.80;6.63;;;;;;;1.13;100.00;96278.69;5031998;28;20444;-75
2022/12/06 02:18:33;;;;;;;7.43;6.73;;;;;;;1.32;100.00;96308.28;5015618;28;20437;-75
2022/12/06 02:21:24;;;;;;;9.00;8.13;;;;;;;1.26;100.00;96311.19;5015279;28;20502;-75
2022/12/06 02:24:14;;;;;;;9.07;7.43;;;;;;;1.32;100.00;96307.50;5049660;28;20475;-75
2022/12/06 02:27:04;;;;;;;7.23;6.40;;;;;;;1.37;100.00;96302.28;5050877;28;20524;-75
2022/12/06 02:29:58;;;;;;;8.37;6.87;;;;;;;1.15;100.00;96266.97;4998968;28;20459;-75
2022/12/06 02:32:33;;;;;;;9.10;8.07;;;;;;;1.27;100.00;96297.91;5020150;28;20426;-75
2022/12/06 02:35:11;;;;;;;8.53;7.03;;;;;;;1.33;100.00;96294.22;5032972;28;20422;-75
2022/12/06 02:38:01;;;;;;;9.07;8.17;;;;;;;1.27;100.00;96294.50;5007728;28;20435;-75
2022/12/06 02:40:35;;;;;;;8.50;7.20;;;;;;;1.11;100.00;96271.16;5031085;28;20466;-75
2022/12/06 02:43:07;;;;;;;10.20;7.97;;;;;;;0.97;100.00;96251.94;5031654;28;20526;-76
2022/12/06 02:45:40;;;;;;;13.17;9.50;;;;;;;1.23;100.00;96303.91;5023869;28;20980;-75
2022/12/06 02:48:09;;;;;;;10.33;9.17;;;;;;;0.93;100.00;96256.09;5044794;28;20792;-75
2022/12/06 02:50:43;;;;;;;11.37;10.07;;;;;;;1.15;100.00;96295.59;5032787;28;20481;-75
2022/12/06 02:53:15;;;;;;;11.10;8.70;;;;;;;1.27;100.00;96302.31;5015030;28;20533;-75
2022/12/06 02:55:44;;;;;;;10.00;8.50;;;;;;;1.26;100.00;96308.59;5028702;28;21014;-74
2022/12/06 02:58:10;;;;;;;10.30;8.67;;;;;;;0.99;100.00;96264.69;5027540;28;20986;-75
2022/12/06 03:00:57;;;;;;;9.73;8.03;;;;;;;1.26;100.00;96311.97;5030988;28;20478;-75
2022/12/06 03:03:26;;;;;;;12.80;10.23;;;;;;;1.22;100.00;96300.53;5031252;28;20528;-75
2022/12/06 03:06:02;;;;;;;14.03;9.50;;;;;;;1.26;100.00;96306.75;5031079;28;20845;-75
2022/12/06 03:08:38;;;;;;;10.53;9.50;;;;;;;1.26;100.00;96311.19;5031882;28;20465;-75
2022/12/06 03:11:05;;;;;;;9.70;8.63;;;;;;;0.83;100.00;96243.16;5014761;28;20985;-75
2022/12/06 03:13:58;;;;;;;10.23;8.70;;;;;;;1.25;100.00;96304.41;5031134;28;20445;-75
2022/12/06 03:16:29;;;;;;;10.83;8.60;;;;;;;1.17;100.00;96288.28;5025423;28;20787;-75
2022/12/06 03:19:05;;;;;;;13.77;9.30;;;;;;;1.29;100.00;96300.22;5034366;28;20437;-75
2022/12/06 03:21:37;;;;;;;10.87;9.27;;;;;;;1.23;100.00;96294.28;5033997;28;20851;-75
2022/12/06 03:24:08;;;;;;;10.13;9.13;;;;;;;1.06;100.00;96265.94;5050763;28;20472;-75
2022/12/06 03:26:37;;;;;;;11.97;10.00;;;;;;;1.07;100.00;96264.94;5049852;28;20458;-75
2022/12/06 03:29:08;;;;;;;12.53;9.13;;;;;;;1.11;100.00;96265.16;5032273;28;20418;-75
2022/12/06 03:31:39;;;;;;;10.80;9.57;;;;;;;1.28;100.00;96291.63;5029399;28;20969;-75
2022/12/06 03:34:14;;;;;;;11.40;8.53;;;;;;;1.12;100.00;96272.72;5041231;28;20435;-75
2022/12/06 03:36:43;;;;;;;11.47;10.17;;;;;;;1.22;100.00;96282.31;5030323;28;20886;-75
2022/12/06 03:39:14;;;;;;;14.33;10.97;;;;;;;1.19;100.00;96267.97;5031787;28;20521;-75
2022/12/06 03:41:50;;;;;;;12.50;9.83;;;;;;;1.16;100.00;96265.91;5030167;28;20480;-75
2022/12/06 03:44:18;;;;;;;13.43;9.93;;;;;;;0.99;100.00;96241.25;5039565;28;20478;-75
2022/12/06 03:46:49;;;;;;;10.20;9.10;;;;;;;0.90;100.00;96222.81;5030367;28;20438;-75
2022/12/06 03:49:35;;;;;;;12.30;10.87;;;;;;;1.14;100.00;96268.00;5030195;28;20448;-75
2022/12/06 03:52:02;;;;;;;14.10;10.80;;;;;;;1.05;100.00;96253.19;5030228;28;20432;-76
2022/12/06 03:54:29;;;;;;;14.03;11.87;;;;;;;1.18;100.00;96279.44;5030025;28;20444;-75
2022/12/06 03:56:56;;;;;;;15.60;12.50;;;;;;;1.15;100.00;96274.75;5030552;28;20449;-75
2022/12/06 03:59:22;;;;;;;13.90;10.43;;;;;;;1.26;100.00;96285.16;5031336;28;20912;-75
2022/12/06 04:01:49;;;;;;;16.60;13.00;;;;;;;1.20;100.00;96286.97;5029746;28;20476;-73
2022/12/06 04:04:15;;;;;;;10.90;9.80;;;;;;;1.00;100.00;96264.41;5030006;28;20529;-73
2022/12/06 04:06:42;;;;;;;11.73;9.90;;;;;;;0.93;100.00;96247.53;5013599;28;20893;-73
2022/12/06 04:11:54;;;;;;;13.00;9.70;;;;;;;1.00;100.00;96243.59;5029959;28;20438;-73
2022/12/06 04:14:20;;;;;;;11.37;9.17;;;;;;;0.95;100.00;96245.47;5016994;28;20441;-73
2022/12/06 04:19:32;;;;;;;13.53;10.23;;;;;;;0.84;100.00;96229.88;5038207;28;20445;-73
2022/12/06 04:24:44;;;;;;;12.40;10.77;;;;;;;0.81;100.00;96216.63;5051063;28;21005;-73
2022/12/06 04:40:58;;;;;;;15.43;12.07;;;;;;;1.00;100.00;96248.03;5030869;28;20474;-73
2022/12/06 04:43:43;;;;;;;12.03;10.83;;;;;;;0.85;100.00;96222.84;5015554;28;20453;-73
2022/12/06 04:46:11;;;;;;;12.50;9.63;;;;;;;1.04;100.00;96244.63;5033663;28;20435;-73
2022/12/06 04:48:39;;;;;;;10.97;9.80;;;;;;;0.94;100.00;96231.66;5013026;28;20454;-73
2022/12/06 04:51:06;;;;;;;11.73;9.10;;;;;;;0.86;100.00;96214.00;5029282;28;20980;-73
2022/12/06 04:53:33;;;;;;;12.33;10.33;;;;;;;0.74;100.00;96193.47;5030718;28;20468;-72
2022/12/06 04:56:00;;;;;;;15.03;10.23;;;;;;;0.88;100.00;96222.31;5032423;28;20435;-76
2022/12/06 04:58:27;;;;;;;13.70;11.13;;;;;;;0.58;100.00;96174.56;5021128;28;20474;-73
2022/12/06 05:00:54;;;;;;;12.87;9.73;;;;;;;0.93;100.00;96211.88;5043050;28;20557;-74
2022/12/06 05:03:21;;;;;;;12.40;10.30;;;;;;;1.03;100.00;96221.47;5049034;28;20441;-74
2022/12/06 05:05:48;;;;;;;12.07;10.37;;;;;;;0.83;100.00;96196.31;5045478;28;20425;-74
2022/12/06 05:08:15;;;;;;;13.70;11.30;;;;;;;0.83;100.00;96198.91;5030543;28;20784;-74
2022/12/06 05:10:46;;;;;;;14.33;11.03;;;;;;;0.99;100.00;96225.66;5029017;28;20446;-74
2022/12/06 05:13:14;;;;;;;12.80;10.83;;;;;;;0.98;100.00;96217.06;5029107;28;20482;-73
2022/12/06 05:15:53;;;;;;;10.57;9.50;;;;;;;0.97;100.00;96218.09;5029025;28;20950;-73
2022/12/06 05:18:20;;;;;;;13.37;11.17;;;;;;;0.97;100.00;96207.69;5029007;28;20533;-74
2022/12/06 05:20:47;;;;;;;12.90;11.50;;;;;;;0.85;100.00;96183.81;5028802;28;20482;-74
2022/12/06 05:23:13;;;;;;;12.07;10.40;;;;;;;0.88;100.00;96191.84;5028996;28;20525;-73
2022/12/06 05:25:40;;;;;;;13.30;12.00;;;;;;;1.05;100.00;96207.13;5035828;28;20436;-74
2022/12/06 05:28:07;;;;;;;12.23;9.57;;;;;;;0.89;100.00;96185.59;5048416;28;20441;-74
2022/12/06 05:30:35;;;;;;;17.87;12.33;;;;;;;1.08;100.00;96219.63;5029102;28;20491;-73
2022/12/06 05:33:01;;;;;;;16.50;14.70;;;;;;;1.04;100.00;96217.81;5034389;28;20426;-74
2022/12/06 05:35:28;;;;;;;15.03;13.53;;;;;;;0.97;100.00;96212.91;5038367;28;20461;-74
2022/12/06 05:37:54;;;;;;;12.10;9.60;;;;;;;1.11;100.00;96220.91;5032562;28;20997;-74
2022/12/06 05:40:21;;;;;;;13.27;10.90;;;;;;;0.84;100.00;96183.03;5034038;28;20488;-73
2022/12/06 05:42:48;;;;;;;15.03;10.67;;;;;;;0.64;100.00;96151.88;5033913;28;20434;-74
2022/12/06 05:45:15;;;;;;;13.53;11.37;;;;;;;0.99;100.00;96195.19;5025444;28;20440;-74
2022/12/06 05:47:41;;;;;;;14.03;12.23;;;;;;;0.81;100.00;96162.75;5032501;28;20441;-74
2022/12/06 05:50:09;;;;;;;14.40;12.53;;;;;;;1.06;100.00;96203.47;5016268;28;20909;-74
2022/12/06 05:52:35;;;;;;;14.10;11.90;;;;;;;0.73;100.00;96154.72;5034088;28;20520;-74
2022/12/06 05:55:02;;;;;;;15.87;12.10;;;;;;;1.07;100.00;96212.88;5032806;28;20482;-74
2022/12/06 05:57:29;;;;;;;13.07;11.67;;;;;;;0.71;100.00;96172.44;5049332;28;20540;-74
2022/12/06 05:59:55;;;;;;;23.50;20.00;;;;;;;0.79;100.00;96170.03;5044772;28;20552;-74
2022/12/06 06:02:22;;;;;;;12.13;10.70;;;;;;;1.05;100.00;96211.56;5033654;28;21014;-74
2022/12/06 06:04:49;;;;;;;39.93;27.23;;;;;;;1.14;100.00;96223.75;5033574;28;20751;-74
2022/12/06 06:07:16;;;;;;;41.70;29.70;;;;;;;1.05;100.00;96206.34;5032515;28;20541;-74
2022/12/06 06:09:42;;;;;;;29.37;22.57;;;;;;;1.09;100.00;96204.78;5032290;28;20438;-74
2022/12/06 06:12:09;;;;;;;15.57;13.40;;;;;;;0.92;100.00;96196.53;5032137;28;20525;-74
2022/12/06 06:14:38;;;;;;;16.10;13.10;;;;;;;1.18;100.00;96214.34;5032325;28;20450;-74
2022/12/06 06:17:05;;;;;;;15.40;11.53;;;;;;;0.98;100.00;96178.03;5015565;28;20441;-74
2022/12/06 06:19:31;;;;;;;17.00;14.23;;;;;;;1.14;100.00;96202.16;5033406;28;20461;-74
2022/12/06 06:21:58;;;;;;;21.27;18.47;;;;;;;0.93;100.00;96169.44;5032034;28;20488;-74
2022/12/06 06:24:25;;;;;;;17.47;13.07;;;;;;;1.01;100.00;96180.09;5043135;28;20941;-74
2022/12/06 06:26:51;;;;;;;18.97;15.93;;;;;;;1.26;100.00;96213.00;5051804;28;20536;-74
2022/12/06 06:29:18;;;;;;;18.43;15.73;;;;;;;1.15;100.00;96193.28;5051917;28;20524;-74
2022/12/06 06:31:45;;;;;;;25.03;20.73;;;;;;;1.09;100.00;96182.13;5035239;28;20487;-74
2022/12/06 06:34:12;;;;;;;19.40;14.97;;;;;;;1.24;100.00;96219.53;5041665;28;20458;-74
2022/12/06 06:36:38;;;;;;;13.03;11.27;;;;;;;1.25;100.00;96223.69;5032119;28;20500;-74
2022/12/06 06:39:11;;;;;;;20.47;17.17;;;;;;;1.21;100.00;96214.88;5031910;28;20516;-74
2022/12/06 06:41:37;;;;;;;16.03;14.33;;;;;;;1.24;100.00;96214.34;5031850;28;21020;-74
2022/12/06 06:44:04;;;;;;;13.80;11.40;;;;;;;1.29;100.00;96222.88;5040304;28;20959;-74
2022/12/06 06:46:33;;;;;;;18.63;16.53;;;;;;;1.37;100.00;96226.75;5032334;28;20587;-74
2022/12/06 06:49:00;;;;;;;15.47;14.00;;;;;;;1.22;100.00;96224.25;5032088;28;20553;-74
2022/12/06 06:51:30;;;;;;;46.00;39.43;;;;;;;1.18;100.00;96219.56;5031936;28;20472;-74
2022/12/06 06:53:57;;;;;;;73.97;62.73;;;;;;;1.00;100.00;96194.16;5031652;28;21236;-74
2022/12/06 06:56:24;;;;;;;20.27;16.00;;;;;;;1.09;100.00;96202.19;5033382;28;20444;-74
2022/12/06 06:58:52;;;;;;;14.07;12.50;;;;;;;1.12;100.00;96204.25;5031956;28;20809;-74
2022/12/06 07:01:21;;;;;;;15.17;13.27;;;;;;;1.06;100.00;96203.47;5032883;28;21020;-74
2022/12/06 07:03:50;;;;;;;16.23;14.60;;;;;;;1.23;100.00;96228.41;5033060;28;21005;-75
2022/12/06 07:06:17;;;;;;;12.83;11.43;;;;;;;1.25;100.00;96234.91;5031691;28;20900;-76
2022/12/06 07:08:45;;;;;;;14.67;13.17;;;;;;;1.23;100.00;96216.16;5015095;28;20450;-76
2022/12/06 07:11:13;;;;;;;12.53;10.60;;;;;;;1.29;100.00;96230.69;5030932;28;20482;-76
2022/12/06 07:13:42;;;;;;;17.07;14.10;;;;;;;1.17;100.00;96225.03;5016891;28;20457;-75
2022/12/06 07:16:15;;;;;;;11.37;10.17;;;;;;;1.20;100.00;96227.09;5040764;28;20448;-75
2022/12/06 07:18:42;;;;;;;14.50;10.27;;;;;;;0.95;100.00;96190.81;5014304;28;20446;-76
2022/12/06 07:21:14;;;;;;;14.03;10.93;;;;;;;1.17;100.00;96225.03;5041745;28;20984;-76
2022/12/06 07:23:41;;;;;;;13.67;11.77;;;;;;;1.02;100.00;96199.09;5034150;28;20545;-76
2022/12/06 07:26:13;;;;;;;12.77;11.23;;;;;;;1.07;100.00;96217.25;5030679;28;21012;-76
2022/12/06 07:28:42;;;;;;;13.30;10.90;;;;;;;1.07;100.00;96212.88;5030912;28;20465;-76
2022/12/06 07:31:20;;;;;;;11.70;10.50;;;;;;;1.17;100.00;96223.22;5030793;28;20533;-76
2022/12/06 07:33:51;;;;;;;11.97;10.03;;;;;;;1.23;100.00;96238.81;5031635;28;20502;-75
2022/12/06 07:36:17;;;;;;;14.37;11.30;;;;;;;1.03;100.00;96209.22;5032956;28;20976;-76
2022/12/06 07:38:50;;;;;;;15.20;11.33;;;;;;;1.23;100.00;96236.22;5031017;28;20457;-75
2022/12/06 07:46:57;;;;;;;16.20;13.40;;;;;;;1.31;100.00;96240.84;5030531;28;20448;-75
2022/12/06 07:49:24;;;;;;;18.27;13.60;;;;;;;1.19;100.00;96225.53;5043428;28;20896;-76
2022/12/06 07:51:52;;;;;;;18.73;14.63;;;;;;;0.97;100.00;96186.88;5031456;28;20468;-75
2022/12/06 07:54:20;;;;;;;15.37;12.70;;;;;;;1.27;100.00;96229.41;5029603;28;20457;-75
2022/12/06 07:56:46;;;;;;;15.67;12.53;;;;;;;1.12;100.00;96207.63;5030040;28;20517;-75
2022/12/06 07:59:13;;;;;;;15.83;13.13;;;;;;;1.03;100.00;96188.41;5016237;28;20438;-76
2022/12/06 08:01:40;;;;;;;19.07;14.57;;;;;;;1.22;100.00;96214.59;5049894;28;20457;-76
2022/12/06 08:04:07;;;;;;;13.00;11.53;;;;;;;1.08;100.00;96185.78;5050499;28;20430;-76
2022/12/06 08:06:34;;;;;;;14.63;11.53;;;;;;;1.32;100.00;96217.13;5049853;28;20430;-76
2022/12/06 08:09:01;;;;;;;14.90;12.20;;;;;;;1.32;100.00;96217.13;5046269;28;20438;-76
2022/12/06 08:11:28;;;;;;;16.87;14.13;;;;;;;1.07;100.00;96184.22;5013346;28;20538;-75
2022/12/06 08:13:55;;;;;;;16.60;12.47;;;;;;;1.11;100.00;96193.06;5013361;28;20434;-76
2022/12/06 08:16:21;;;;;;;16.13;14.00;;;;;;;1.17;100.00;96189.34;5041230;28;21008;-76
2022/12/06 08:18:48;;;;;;;17.13;14.70;;;;;;;1.44;100.00;96212.38;5045794;28;20500;-76
2022/12/06 08:21:15;;;;;;;16.53;14.57;;;;;;;1.29;100.00;96196.06;5030543;28;20807;-76
2022/12/06 08:23:42;;;;;;;15.87;12.73;;;;;;;1.11;100.00;96181.88;5016602;28;20499;-76
2022/12/06 08:26:12;;;;;;;14.43;12.40;;;;;;;1.46;100.00;96215.47;5049100;28;20441;-76
2022/12/06 08:28:40;;;;;;;19.40;12.47;;;;;;;1.17;100.00;96178.94;5031342;28;20458;-76
2022/12/06 08:31:13;;;;;;;19.00;14.97;;;;;;;1.30;100.00;96195.78;5024212;28;20465;-76
2022/12/06 08:33:40;;;;;;;16.70;13.63;;;;;;;1.26;100.00;96184.38;5049538;28;20838;-76
2022/12/06 08:36:13;;;;;;;18.40;13.20;;;;;;;1.55;100.00;96205.28;5032576;28;20571;-75
2022/12/06 08:38:40;;;;;;;15.60;12.87;;;;;;;1.36;100.00;96199.16;5016960;28;20430;-75
2022/12/06 08:43:54;;;;;;;19.17;13.83;;;;;;;1.36;100.00;96201.78;5049127;28;20571;-76
2022/12/06 08:46:22;;;;;;;15.90;13.30;;;;;;;1.47;100.00;96218.91;5034005;28;20484;-76
2022/12/06 08:48:50;;;;;;;17.83;14.17;;;;;;;1.30;100.00;96192.41;5010119;28;21034;-75
2022/12/06 08:51:16;;;;;;;16.70;13.77;;;;;;;1.48;100.00;96223.84;5029374;28;20497;-75
2022/12/06 08:53:43;;;;;;;15.87;13.50;;;;;;;1.47;100.00;96218.91;5029189;28;20548;-76
2022/12/06 08:56:10;;;;;;;18.17;13.90;;;;;;;1.45;100.00;96219.13;5034738;28;20765;-75
2022/12/06 08:58:37;;;;;;;20.70;13.60;;;;;;;1.34;100.00;96202.03;5038193;28;20510;-76
2022/12/06 09:01:15;;;;;;;18.60;15.10;;;;;;;1.47;100.00;96221.50;5029443;28;20465;-76
2022/12/06 09:03:42;;;;;;;16.40;13.30;;;;;;;0.82;100.00;96116.69;5029196;28;20891;-76
2022/12/06 09:06:09;;;;;;;14.80;13.20;;;;;;;1.52;100.00;96218.06;5046300;28;20434;-75
2022/12/06 09:08:37;;;;;;;19.20;14.90;;;;;;;1.41;100.00;96206.94;5035799;28;20434;-75
2022/12/06 09:11:05;;;;;;;17.23;12.83;;;;;;;1.21;100.00;96191.44;5053424;28;20457;-75
2022/12/06 09:13:33;;;;;;;16.23;13.53;;;;;;;1.31;100.00;96191.38;5040106;28;21147;-76
2022/12/06 09:16:04;;;;;;;20.03;14.57;;;;;;;1.14;100.00;96165.69;5020199;28;20534;-76
2022/12/06 09:18:32;;;;;;;20.40;15.03;;;;;;;1.40;100.00;96213.19;5018020;28;20434;-75
2022/12/06 09:20:58;;;;;;;17.23;13.27;;;;;;;1.25;100.00;96195.84;5034384;28;20507;-75
2022/12/06 09:23:26;;;;;;;22.63;15.00;;;;;;;1.48;100.00;96220.44;5033391;28;20532;-76
2022/12/06 09:25:52;;;;;;;17.23;14.03;;;;;;;1.51;100.00;96216.53;5032903;28;20545;-75
2022/12/06 09:28:19;;;;;;;18.23;12.80;;;;;;;1.40;100.00;96207.97;5034627;28;20430;-75
2022/12/06 09:30:46;;;;;;;15.70;12.80;;;;;;;1.45;100.00;96216.53;5052906;28;20445;-75
2022/12/06 09:33:12;;;;;;;21.07;13.17;;;;;;;1.32;100.00;96182.50;5037847;28;20470;-77
2022/12/06 09:35:39;;;;;;;16.30;13.47;;;;;;;1.27;100.00;96175.50;5027428;28;20499;-75
2022/12/06 09:38:06;;;;;;;20.57;13.23;;;;;;;1.50;100.00;96205.31;5029688;28;20430;-75
2022/12/06 09:40:42;;;;;;;19.27;12.60;;;;;;;1.26;100.00;96184.38;5016605;28;20458;-75
2022/12/06 09:43:30;;;;;;;18.03;12.50;;;;;;;1.51;100.00;96217.28;5036853;28;20468;-76
2022/12/06 09:46:38;;;;;;;16.70;12.80;;;;;;;1.46;100.00;96212.88;5039226;28;20446;-76
2022/12/06 09:49:12;;;;;;;15.60;11.63;;;;;;;1.47;100.00;96204.03;5009446;28;20447;-76
2022/12/06 09:52:32;;;;;;;13.80;11.50;;;;;;;1.39;100.00;96188.97;5020575;28;20446;-76
2022/12/06 09:55:17;;;;;;;14.20;10.83;;;;;;;1.28;100.00;96161.44;4992090;28;20835;-76
2022/12/06 09:58:18;;;;;;;17.40;13.03;;;;;;;1.53;100.00;96193.56;5026967;28;20539;-76
2022/12/06 10:00:52;;;;;;;21.87;16.00;;;;;;;1.39;100.00;96180.38;5044593;28;20912;-76
2022/12/06 10:03:52;;;;;;;17.13;12.30;;;;;;;1.33;100.00;96148.38;5043487;28;20825;-76
2022/12/06 10:06:22;;;;;;;15.93;12.70;;;;;;;1.61;100.00;96185.19;5023001;28;20436;-76
2022/12/06 10:08:48;;;;;;;11.73;10.50;;;;;;;1.51;100.00;96191.25;5032843;28;20433;-76
2022/12/06 10:11:27;;;;;;;17.53;15.60;;;;;;;1.48;100.00;96184.75;5032234;28;20466;-76
2022/12/06 10:14:41;;;;;;;17.40;14.53;;;;;;;1.55;100.00;96191.47;5047760;28;20831;-77
2022/12/06 10:17:25;;;;;;;18.60;16.23;;;;;;;1.53;100.00;96180.56;5010525;28;20534;-76
2022/12/06 10:20:00;;;;;;;15.93;13.20;;;;;;;1.52;100.00;96186.81;5016016;28;20504;-76
2022/12/06 10:23:04;;;;;;;15.73;11.97;;;;;;;1.57;100.00;96184.16;5019558;28;20547;-75
2022/12/06 10:25:34;;;;;;;16.13;11.17;;;;;;;1.52;100.00;96190.19;5037788;28;20476;-75
2022/12/06 10:28:11;;;;;;;11.73;9.23;;;;;;;1.43;100.00;96174.34;5041227;28;20794;-75
2022/12/06 10:30:52;;;;;;;68.57;38.80;;;;;;;1.54;100.00;96185.50;5053874;28;20441;-75
2022/12/06 10:33:41;;;;;;;55.60;37.00;;;;;;;1.42;100.00;96153.78;5020841;28;20429;-75
2022/12/06 10:36:11;;;;;;;177.63;110.57;;;;;;;1.16;100.00;96108.94;5033923;28;20534;-76
2022/12/06 10:38:47;;;;;;;113.70;78.23;;;;;;;1.64;100.00;96175.00;5021588;28;20427;-76
2022/12/06 10:41:21;;;;;;;87.73;63.93;;;;;;;1.61;100.00;96156.53;5048369;28;20867;-76
2022/12/06 10:43:53;;;;;;;28.67;25.67;;;;;;;1.68;100.00;96170.00;5034325;28;20520;-76
2022/12/06 10:47:03;;;;;;;20.13;15.10;;;;;;;1.66;100.00;96175.50;5036122;28;20450;-76
2022/12/06 10:49:49;;;;;;;14.43;11.40;;;;;;;1.71;100.00;96169.47;5032413;28;20446;-75
2022/12/06 10:52:24;;;;;;;13.13;11.93;;;;;;;1.63;100.00;96173.44;5034713;28;20453;-76
2022/12/06 10:55:18;;;;;;;13.97;12.10;;;;;;;1.55;100.00;96155.00;5045849;28;20441;-76
2022/12/06 10:57:53;;;;;;;9.80;8.80;;;;;;;1.43;100.00;96139.72;5012066;28;20453;-76
2022/12/06 11:00:26;;;;;;;11.97;10.47;;;;;;;1.69;100.00;96169.72;5023508;28;20576;-76
2022/12/06 11:03:04;;;;;;;10.00;8.63;;;;;;;1.26;100.00;96100.28;5033971;28;20465;-76
2022/12/06 11:05:36;;;;;;;14.50;11.43;;;;;;;1.67;100.00;96168.47;5050246;28;20433;-76
2022/12/06 11:08:12;;;;;;;32.17;24.07;;;;;;;1.55;100.00;96139.38;5014814;28;20445;-77
2022/12/06 11:10:42;;;;;;;25.83;17.17;;;;;;;1.63;100.00;96150.00;5044889;28;20863;-76
2022/12/06 11:13:29;;;;;;;64.50;45.00;;;;;;;1.75;100.00;96162.66;5032843;28;20739;-76
2022/12/06 11:16:20;;;;;;;47.77;38.33;;;;;;;1.73;100.00;96156.94;5045637;28;20424;-76
2022/12/06 11:18:48;;;;;;;51.07;46.27;;;;;;;1.48;100.00;96114.44;5034745;28;20491;-76
2022/12/06 11:21:30;;;;;;;9.17;8.37;;;;;;;1.51;100.00;96113.09;5050796;28;20868;-76
2022/12/06 11:24:18;;;;;;;13.10;11.80;;;;;;;1.81;100.00;96148.53;5015019;28;20477;-76
2022/12/06 11:26:52;;;;;;;8.50;7.70;;;;;;;1.80;100.00;96146.97;5031264;28;20457;-76
2022/12/06 11:29:19;;;;;;;8.47;7.20;;;;;;;1.77;100.00;96140.50;5032231;28;20440;-76
2022/12/06 11:31:54;;;;;;;6.20;5.40;;;;;;;1.79;100.00;96153.25;5032648;28;20486;-76
2022/12/06 11:34:30;;;;;;;8.50;7.40;;;;;;;1.77;100.00;96148.31;5031678;28;20448;-77
2022/12/06 11:36:58;;;;;;;9.13;7.83;;;;;;;1.91;100.00;96151.06;5032006;28;20861;-77
2022/12/06 11:39:27;;;;;;;8.03;7.20;;;;;;;1.66;100.00;96117.41;5031810;28;20445;-76
2022/12/06 11:41:57;;;;;;;9.87;7.27;;;;;;;1.83;100.00;96141.22;5032043;28;20430;-76
2022/12/06 11:44:38;;;;;;;8.90;8.03;;;;;;;1.74;100.00;96128.00;5042294;28;20410;-76
2022/12/06 11:47:18;;;;;;;9.37;8.53;;;;;;;1.78;100.00;96128.25;5031362;28;20988;-77
2022/12/06 11:49:46;;;;;;;9.07;8.07;;;;;;;1.69;100.00;96119.44;5049978;28;20853;-76
2022/12/06 11:52:20;;;;;;;6.13;5.50;;;;;;;1.65;100.00;96119.22;5050714;28;20484;-76
2022/12/06 11:54:54;;;;;;;5.80;5.30;;;;;;;1.77;100.00;96137.88;5047638;28;20534;-76
2022/12/06 11:58:05;;;;;;;6.23;5.60;;;;;;;1.67;100.00;96140.56;5038705;28;20509;-76
2022/12/06 12:00:31;;;;;;;4.83;4.43;;;;;;;1.48;100.00;96108.44;5050687;28;20465;-76
2022/12/06 12:02:58;;;;;;;5.43;4.93;;;;;;;1.69;100.00;96141.06;5043400;28;20485;-76
2022/12/06 12:05:35;;;;;;;5.37;4.90;;;;;;;1.62;100.00;96126.81;5056263;28;20434;-76
2022/12/06 12:08:18;;;;;;;5.97;5.33;;;;;;;1.64;100.00;96128.09;5034235;28;20431;-77
2022/12/06 12:10:58;;;;;;;4.67;4.37;;;;;;;1.71;100.00;96135.59;5042369;28;20564;-76
2022/12/06 12:13:43;;;;;;;4.80;4.30;;;;;;;1.74;100.00;96130.63;5039331;28;20421;-77